createdAt,value
2022-09-18T00:04:30.953Z,1.38
2022-09-18T00:09:33.806Z,1.20
2022-09-18T00:14:38.133Z,0.95
2022-09-18T00:19:40.889Z,1.15
2022-09-18T00:24:43.689Z,1.10
2022-09-18T00:29:47.753Z,1.15
2022-09-18T00:34:50.436Z,1.08
2022-09-18T00:39:53.423Z,1.13
2022-09-18T00:44:57.545Z,1.15
2022-09-18T00:50:05.163Z,1.00
2022-09-18T00:55:10.095Z,1.23
2022-09-18T01:00:15.407Z,1.23
2022-09-18T01:05:23.040Z,1.00
2022-09-18T01:10:36.095Z,1.10
2022-09-18T01:15:44.559Z,1.00
2022-09-18T01:21:03.889Z,0.90
2022-09-18T01:26:19.512Z,1.10
2022-09-18T01:31:29.649Z,1.20
2022-09-18T01:36:36.436Z,1.10
2022-09-18T01:41:41.575Z,1.10
2022-09-18T01:46:46.829Z,1.00
2022-09-18T01:51:55.148Z,0.90
2022-09-18T01:57:00.391Z,1.23
2022-09-18T02:02:07.416Z,1.00
2022-09-18T02:07:14.601Z,1.30
2022-09-18T02:12:21.038Z,1.10
2022-09-18T02:17:32.336Z,1.00
2022-09-18T02:22:36.027Z,0.90
2022-09-18T02:27:39.502Z,1.10
2022-09-18T02:32:43.682Z,1.17
2022-09-18T02:37:55.971Z,1.00
2022-09-18T02:43:11.643Z,0.93
2022-09-18T02:48:30.448Z,1.10
2022-09-18T02:53:36.410Z,1.00
2022-09-18T02:58:43.778Z,1.10
2022-09-18T03:03:48.623Z,0.90
2022-09-18T03:08:53.561Z,1.10
2022-09-18T03:13:56.407Z,1.17
2022-09-18T03:19:01.698Z,1.15
2022-09-18T03:24:04.454Z,1.10
2022-09-18T03:29:10.002Z,1.10
2022-09-18T03:34:16.126Z,1.00
2022-09-18T03:39:21.408Z,1.10
2022-09-18T03:44:26.659Z,1.13
2022-09-18T03:49:33.714Z,0.90
2022-09-18T03:54:36.457Z,1.00
2022-09-18T03:59:49.651Z,1.05
2022-09-18T04:05:19.169Z,1.00
2022-09-18T04:10:48.452Z,0.90
2022-09-18T04:15:51.203Z,1.00
2022-09-18T04:20:55.333Z,1.00
2022-09-18T04:25:58.241Z,1.13
2022-09-18T04:31:06.762Z,1.20
2022-09-18T04:36:11.097Z,1.10
2022-09-18T04:41:14.170Z,1.02
2022-09-18T04:46:18.535Z,1.10
2022-09-18T04:51:22.744Z,1.10
2022-09-18T04:56:25.641Z,1.25
2022-09-18T05:01:29.152Z,1.10
2022-09-18T05:06:36.152Z,1.20
2022-09-18T05:11:40.087Z,1.15
2022-09-18T05:16:42.783Z,1.10
2022-09-18T05:22:08.431Z,1.10
2022-09-18T05:27:15.762Z,1.15
2022-09-18T05:32:20.243Z,1.10
2022-09-18T05:37:24.712Z,1.10
2022-09-18T05:42:30.497Z,1.00
2022-09-18T05:47:36.137Z,1.00
2022-09-18T05:52:41.439Z,1.17
2022-09-18T05:57:44.732Z,1.10
2022-09-18T06:02:53.942Z,1.50
2022-09-18T06:08:00.217Z,1.20
2022-09-18T06:13:04.094Z,1.10
2022-09-18T06:18:08.750Z,1.10
2022-09-18T06:23:13.081Z,1.10
2022-09-18T06:28:28.131Z,1.20
2022-09-18T06:33:31.978Z,1.27
2022-09-18T06:38:36.138Z,1.10
2022-09-18T06:43:38.974Z,1.42
2022-09-18T06:49:00.173Z,1.10
2022-09-18T06:54:04.446Z,1.08
2022-09-18T06:59:07.815Z,1.27
2022-09-18T07:04:12.408Z,1.30
2022-09-18T07:09:20.523Z,1.42
2022-09-18T07:14:29.079Z,1.20
2022-09-18T07:19:38.951Z,1.10
2022-09-18T07:24:44.594Z,1.30
2022-09-18T07:29:47.655Z,1.30
2022-09-18T07:34:51.791Z,1.40
2022-09-18T07:40:02.305Z,1.25
2022-09-18T07:45:23.946Z,1.17
2022-09-18T07:50:26.958Z,1.50
2022-09-18T07:55:31.216Z,1.58
2022-09-18T08:00:37.064Z,1.40
2022-09-18T08:05:40.562Z,1.48
2022-09-18T08:10:45.832Z,1.30
2022-09-18T08:16:07.152Z,1.40
2022-09-18T08:21:30.628Z,1.40
2022-09-18T08:26:38.603Z,1.25
2022-09-18T08:31:42.316Z,1.25
2022-09-18T08:36:46.623Z,1.25
2022-09-18T08:42:05.730Z,1.40
2022-09-18T08:47:14.884Z,1.40
2022-09-18T08:52:19.241Z,1.23
2022-09-18T08:57:29.953Z,1.30
2022-09-18T09:02:46.809Z,1.40
2022-09-18T09:08:12.620Z,1.30
2022-09-18T09:13:55.078Z,1.30
2022-09-18T09:19:01.792Z,1.20
2022-09-18T09:24:20.978Z,1.27
2022-09-18T09:29:44.431Z,1.30
2022-09-18T09:35:18.192Z,1.42
2022-09-18T09:40:40.111Z,1.20
2022-09-18T09:45:46.265Z,1.27
2022-09-18T09:50:55.846Z,1.10
2022-09-18T09:56:03.806Z,1.25
2022-09-18T10:01:12.016Z,1.42
2022-09-18T10:06:28.967Z,1.33
2022-09-18T10:11:33.153Z,1.30
2022-09-18T10:16:40.338Z,1.25
2022-09-18T10:21:47.687Z,1.13
2022-09-18T10:26:52.977Z,1.25
2022-09-18T10:31:57.434Z,1.20
2022-09-18T10:37:05.161Z,1.13
2022-09-18T10:42:08.562Z,1.35
2022-09-18T10:47:21.414Z,1.20
2022-09-18T10:52:31.800Z,1.17
2022-09-18T10:57:40.426Z,1.33
2022-09-18T11:02:48.413Z,1.40
2022-09-18T11:07:54.259Z,1.50
2022-09-18T11:12:59.018Z,1.40
2022-09-18T11:18:15.795Z,1.20
2022-09-18T11:23:27.729Z,1.40
2022-09-18T11:28:33.603Z,1.40
2022-09-18T11:33:45.266Z,1.40
2022-09-18T11:38:50.847Z,1.30
2022-09-18T11:44:01.637Z,1.50
2022-09-18T11:49:07.795Z,1.40
2022-09-18T11:54:25.559Z,1.40
2022-09-18T11:59:30.845Z,1.30
2022-09-18T12:04:41.890Z,1.30
2022-09-18T12:09:49.536Z,1.17
2022-09-18T12:15:03.183Z,1.20
2022-09-18T12:20:11.476Z,1.20
2022-09-18T12:25:17.788Z,1.15
2022-09-18T12:30:44.923Z,1.00
2022-09-18T12:35:58.419Z,1.20
2022-09-18T12:41:17.448Z,1.25
2022-09-18T12:46:29.069Z,1.13
2022-09-18T12:51:38.619Z,1.35
2022-09-18T12:56:52.534Z,1.20
2022-09-18T13:01:58.674Z,1.42
2022-09-18T13:07:04.836Z,1.25
2022-09-18T13:12:14.257Z,1.20
2022-09-18T13:17:20.023Z,1.30
2022-09-18T13:22:24.010Z,1.13
2022-09-18T13:27:28.666Z,1.10
2022-09-18T13:32:41.419Z,1.20
2022-09-18T13:37:44.510Z,1.20
2022-09-18T13:42:48.759Z,1.80
2022-09-18T13:48:02.284Z,2.50
2022-09-18T13:53:06.065Z,3.13
2022-09-18T13:58:36.899Z,3.20
2022-09-18T14:03:40.873Z,2.90
2022-09-18T14:08:43.649Z,3.50
2022-09-18T14:13:54.135Z,3.72
2022-09-18T14:19:03.167Z,2.97
2022-09-18T14:24:25.371Z,3.10
2022-09-18T14:29:32.863Z,3.30
2022-09-18T14:34:38.516Z,2.90
2022-09-18T14:39:41.251Z,3.00
2022-09-18T14:44:52.349Z,3.00
2022-09-18T14:49:55.007Z,2.97
2022-09-18T14:54:59.784Z,2.85
2022-09-18T15:00:08.044Z,2.88
2022-09-18T15:05:12.397Z,2.65
2022-09-18T15:10:17.530Z,2.63
2022-09-18T15:15:58.406Z,2.53
2022-09-18T15:21:03.781Z,2.58
2022-09-18T15:26:09.698Z,2.17
2022-09-18T15:31:14.573Z,2.28
2022-09-18T15:36:25.227Z,2.35
2022-09-18T15:41:35.889Z,2.17
2022-09-18T15:46:39.978Z,1.90
2022-09-18T15:51:42.686Z,2.03
2022-09-18T15:56:51.269Z,2.13
2022-09-18T16:01:55.833Z,1.88
2022-09-18T16:07:01.563Z,2.10
2022-09-18T16:12:27.870Z,1.70
2022-09-18T16:17:40.430Z,2.03
2022-09-18T16:22:43.115Z,1.83
2022-09-18T16:27:46.875Z,2.00
2022-09-18T16:32:51.014Z,1.73
2022-09-18T16:37:55.120Z,1.60
2022-09-18T16:42:58.415Z,1.90
2022-09-18T16:48:03.534Z,1.50
2022-09-18T16:53:08.216Z,1.42
2022-09-18T16:58:11.235Z,1.52
2022-09-18T17:03:15.577Z,1.55
2022-09-18T17:08:18.343Z,1.70
2022-09-18T17:13:21.097Z,1.48
2022-09-18T17:18:25.269Z,1.40
2022-09-18T17:23:30.087Z,1.45
2022-09-18T17:28:32.848Z,1.60
2022-09-18T17:33:36.889Z,1.50
2022-09-18T17:38:40.479Z,1.60
2022-09-18T17:43:43.567Z,1.58
2022-09-18T17:48:47.637Z,1.30
2022-09-18T17:53:50.525Z,1.50
2022-09-18T17:58:56.346Z,1.50
2022-09-18T18:04:01.051Z,1.70
2022-09-18T18:09:05.305Z,2.25
2022-09-18T18:14:08.311Z,2.42
2022-09-18T18:19:13.089Z,2.90
2022-09-18T18:24:18.928Z,7.03
2022-09-18T18:29:21.849Z,6.70
2022-09-18T18:34:26.711Z,8.05
2022-09-18T18:39:29.472Z,19.05
2022-09-18T18:44:32.182Z,29.25
2022-09-18T18:49:36.365Z,44.83
2022-09-18T18:54:39.506Z,57.70
2022-09-18T18:59:43.856Z,63.63
2022-09-18T19:04:49.767Z,68.05
2022-09-18T19:09:52.463Z,75.25
2022-09-18T19:14:55.226Z,79.63
2022-09-18T19:20:01.513Z,82.45
2022-09-18T19:25:06.356Z,83.68
2022-09-18T19:30:10.011Z,85.07
2022-09-18T19:35:14.068Z,83.78
2022-09-18T19:40:17.663Z,84.43
2022-09-18T19:45:24.402Z,83.00
2022-09-18T19:50:30.956Z,80.75
2022-09-18T19:55:33.622Z,65.22
2022-09-18T20:00:39.652Z,58.35
2022-09-18T20:05:44.251Z,55.35
2022-09-18T20:10:48.455Z,53.28
2022-09-18T20:15:59.818Z,51.42
2022-09-18T20:21:08.510Z,50.00
2022-09-18T20:26:12.337Z,47.35
2022-09-18T20:31:16.150Z,40.75
2022-09-18T20:36:20.243Z,36.15
2022-09-18T20:41:23.031Z,35.55
2022-09-18T20:46:30.402Z,32.92
2022-09-18T20:51:35.978Z,30.40
2022-09-18T20:56:41.928Z,28.35
2022-09-18T21:01:45.639Z,26.58
2022-09-18T21:06:55.947Z,26.42
2022-09-18T21:11:58.714Z,24.50
2022-09-18T21:17:01.464Z,23.05
2022-09-18T21:22:05.848Z,21.73
2022-09-18T21:27:09.759Z,21.05
2022-09-18T21:32:12.400Z,20.55
2022-09-18T21:37:17.149Z,19.70
2022-09-18T21:42:19.875Z,19.00
2022-09-18T21:47:22.550Z,18.38
2022-09-18T21:52:26.686Z,18.30
2022-09-18T21:57:29.479Z,17.38
2022-09-18T22:02:32.156Z,16.45
2022-09-18T22:07:37.075Z,16.25
2022-09-18T22:12:40.088Z,15.15
2022-09-18T22:17:42.730Z,14.43
2022-09-18T22:22:47.049Z,13.68
2022-09-18T22:27:49.757Z,12.60
2022-09-18T22:32:52.577Z,12.25
2022-09-18T22:37:57.014Z,12.20
2022-09-18T22:42:59.715Z,11.13
2022-09-18T22:48:02.640Z,10.75
2022-09-18T22:53:06.707Z,10.63
2022-09-18T22:58:09.513Z,9.57
2022-09-18T23:03:12.645Z,10.38
2022-09-18T23:08:16.738Z,9.00
2022-09-18T23:13:22.894Z,8.35
2022-09-18T23:18:25.627Z,8.18
2022-09-18T23:23:32.168Z,7.95
2022-09-18T23:28:36.406Z,7.70
2022-09-18T23:33:39.710Z,7.35
2022-09-18T23:38:44.251Z,6.97
2022-09-18T23:43:48.573Z,6.65
2022-09-18T23:48:54.933Z,6.20
2022-09-18T23:54:00.798Z,5.95
2022-09-18T23:59:06.150Z,5.53
